Time;durP1;ratioP1;P1;durP2;ratioP2;P2;SDS_P1;SDS_P2;PMS_P1;PMS_P2;Temp;Humidity;BMP_temperature;BMP_pressure;BME280_temperature;BME280_humidity;BME280_pressure;Samples;Min_cycle;Max_cycle;Signal;HPM_P1;HPM_P2
2024/04/19 00:00:27;;;;;;;12.13;5.18;;;6.90;99.90;;;6.18;100.00;102044.03;4458338;26;20004;-59
2024/04/19 00:02:28;;;;;;;8.55;4.40;;;6.90;99.90;;;6.16;100.00;102039.78;4458455;26;20005;-59
2024/04/19 00:04:29;;;;;;;6.13;4.05;;;6.90;99.90;;;6.13;100.00;102053.94;4464351;26;20064;-58
2024/04/19 00:06:30;;;;;;;8.63;4.15;;;6.90;99.90;;;6.08;100.00;102053.38;4487333;26;20035;-58
2024/04/19 00:08:31;;;;;;;8.60;3.80;;;6.80;99.90;;;6.03;100.00;102044.97;4458500;26;20012;-59
2024/04/19 00:10:35;;;;;;;9.95;3.60;;;6.80;99.90;;;6.03;100.00;102047.59;4458515;26;20074;-58
2024/04/19 00:12:35;;;;;;;7.00;4.03;;;6.80;99.90;;;5.98;100.00;102044.41;4458296;26;20000;-59
2024/04/19 00:14:36;;;;;;;12.48;5.30;;;6.70;99.90;;;5.92;100.00;102042.16;4458328;26;20095;-59
2024/04/19 00:16:37;;;;;;;12.98;4.53;;;6.70;99.90;;;5.89;100.00;102039.72;4458417;26;20004;-59
2024/04/19 00:18:38;;;;;;;10.43;4.60;;;6.60;99.90;;;5.86;100.00;102047.75;4458636;26;20032;-59
2024/04/19 00:20:39;;;;;;;8.02;4.60;;;6.60;99.90;;;5.83;100.00;102043.53;4458059;26;20050;-59
2024/04/19 00:22:40;;;;;;;9.88;4.88;;;6.50;99.90;;;5.78;100.00;102037.75;4458090;26;20091;-59
2024/04/19 00:24:41;;;;;;;12.95;4.93;;;6.50;99.90;;;5.74;100.00;102044.09;4462516;26;20028;-59
2024/04/19 00:26:42;;;;;;;8.32;4.18;;;6.50;99.90;;;5.68;100.00;102039.22;4457650;26;20032;-59
2024/04/19 00:28:43;;;;;;;7.75;4.50;;;6.40;99.90;;;5.64;100.00;102042.13;4458323;26;20032;-59
2024/04/19 00:30:44;;;;;;;10.93;4.72;;;6.40;99.90;;;5.58;100.00;102033.69;4458196;26;20000;-58
2024/04/19 00:32:44;;;;;;;6.35;4.43;;;6.30;99.90;;;5.56;100.00;102026.88;4467128;26;20000;-58
2024/04/19 00:34:45;;;;;;;8.68;4.57;;;6.30;99.90;;;5.52;100.00;102028.88;4458207;26;20012;-58
2024/04/19 00:36:46;;;;;;;10.40;4.60;;;6.20;99.90;;;5.50;100.00;102035.09;4457943;26;20000;-59
2024/04/19 00:38:47;;;;;;;9.35;4.15;;;6.20;99.90;;;5.48;100.00;102026.50;4457947;26;20432;-59
2024/04/19 00:40:48;;;;;;;6.47;3.97;;;6.20;99.90;;;5.44;100.00;102030.22;4457825;26;20370;-59
2024/04/19 00:42:50;;;;;;;6.97;3.90;;;6.20;99.90;;;5.41;100.00;102026.03;4457686;26;20440;-59
2024/04/19 00:44:51;;;;;;;6.00;3.83;;;6.20;99.90;;;5.39;100.00;102027.91;4457510;26;20042;-59
2024/04/19 00:46:52;;;;;;;7.57;4.18;;;6.10;99.90;;;5.33;100.00;102012.56;4468217;26;20347;-58
2024/04/19 00:48:53;;;;;;;7.93;4.55;;;6.10;99.90;;;5.33;100.00;102014.34;4478870;26;20054;-58
2024/04/19 00:50:59;;;;;;;8.48;3.95;;;6.10;99.90;;;5.33;100.00;102012.56;4462636;26;20001;-59
2024/04/19 00:53:01;;;;;;;7.47;3.95;;;6.10;99.90;;;5.34;100.00;102010.81;4470603;26;20004;-58
2024/04/19 00:55:03;;;;;;;7.78;3.60;;;6.00;99.90;;;5.34;100.00;102009.03;4463105;26;20014;-58
2024/04/19 00:57:04;;;;;;;6.20;3.58;;;6.00;99.90;;;5.33;100.00;102012.56;4457306;26;20007;-58
2024/04/19 00:59:06;;;;;;;6.78;3.58;;;6.00;99.90;;;5.35;100.00;102010.69;4457833;26;20008;-59
2024/04/19 01:01:07;;;;;;;9.80;3.42;;;6.00;99.90;;;5.33;100.00;102009.94;4457723;26;19996;-59
2024/04/19 01:03:10;;;;;;;8.73;3.75;;;6.00;99.90;;;5.38;100.00;101999.19;4457611;26;20448;-58
2024/04/19 01:05:11;;;;;;;6.55;3.45;;;6.10;99.90;;;5.42;100.00;101996.31;4473945;26;20004;-58
2024/04/19 01:07:12;;;;;;;8.02;3.58;;;6.10;99.90;;;5.46;100.00;102002.22;4457611;26;20041;-59
2024/04/19 01:09:16;;;;;;;7.15;3.50;;;6.10;99.90;;;5.49;100.00;101996.81;4457600;26;20012;-58
2024/04/19 01:11:17;;;;;;;;;;;6.10;99.90;;;5.42;100.00;101991.09;4457811;26;20000;-58
2024/04/19 01:13:18;;;;;;;4.20;2.80;;;6.10;99.90;;;5.44;100.00;101997.06;4456645;26;20324;-59
2024/04/19 01:15:22;;;;;;;4.05;2.67;;;6.20;99.90;;;5.47;100.00;101998.66;4457713;26;20027;-59
2024/04/19 01:17:23;;;;;;;3.55;2.70;;;6.20;99.90;;;5.44;100.00;101991.81;4457618;26;20005;-59
2024/04/19 01:19:24;;;;;;;9.05;3.53;;;6.20;99.90;;;5.43;100.00;101990.16;4457465;26;20041;-58
2024/04/19 01:21:25;;;;;;;5.53;2.78;;;6.10;99.90;;;5.43;100.00;101994.56;4457567;26;20411;-59
2024/04/19 01:23:28;;;;;;;5.80;2.90;;;6.20;99.90;;;5.41;100.00;101983.31;4457342;26;20000;-59
2024/04/19 01:25:37;;;;;;;4.00;2.60;;;6.20;99.90;;;5.37;100.00;101971.38;4455813;26;20007;-59
2024/04/19 01:27:38;;;;;;;7.05;3.58;;;6.10;99.90;;;5.32;100.00;101978.63;4457297;26;20460;-58
2024/04/19 01:29:39;;;;;;;8.05;3.92;;;6.10;99.90;;;5.26;100.00;101974.63;4457778;26;20040;-59
2024/04/19 01:31:41;;;;;;;8.00;4.15;;;6.10;99.90;;;5.22;100.00;101972.28;4457503;26;20008;-59
2024/04/19 01:33:42;;;;;;;8.20;4.00;;;6.00;99.90;;;5.17;100.00;101969.13;4457268;26;20015;-58
2024/04/19 01:35:42;;;;;;;8.05;3.58;;;6.00;99.90;;;5.14;100.00;101964.06;4457378;26;20008;-58
2024/04/19 01:37:43;;;;;;;8.18;4.25;;;5.90;99.90;;;5.12;100.00;101958.91;4457455;26;20098;-59
2024/04/19 01:39:44;;;;;;;10.65;3.33;;;5.90;99.90;;;5.08;100.00;101960.00;4467145;26;20000;-59
2024/04/19 01:41:45;;;;;;;7.47;3.97;;;5.90;99.90;;;5.05;100.00;101954.97;4458970;26;20004;-59
2024/04/19 01:43:46;;;;;;;6.78;3.50;;;5.80;99.90;;;5.08;100.00;101954.78;4457040;26;20000;-59
2024/04/19 01:45:46;;;;;;;7.07;3.72;;;5.80;99.90;;;5.06;100.00;101951.44;4457058;26;20036;-59
2024/04/19 01:47:48;;;;;;;7.30;4.10;;;5.80;99.90;;;5.05;100.00;101952.34;4457057;26;20197;-59
2024/04/19 01:49:49;;;;;;;9.32;3.92;;;5.80;99.90;;;5.04;100.00;101948.06;4456926;26;20000;-58
2024/04/19 01:51:49;;;;;;;7.78;3.95;;;5.80;99.90;;;5.05;100.00;101944.50;4456938;26;20000;-59
2024/04/19 01:53:50;;;;;;;8.68;3.90;;;5.80;99.90;;;5.07;100.00;101936.59;4457145;26;20019;-58
2024/04/19 01:55:51;;;;;;;7.10;4.22;;;5.80;99.90;;;5.06;100.00;101935.75;4464258;26;20032;-59
2024/04/19 01:57:52;;;;;;;6.80;3.33;;;5.80;99.90;;;5.09;100.00;101938.19;4456816;26;20040;-59
2024/04/19 01:59:53;;;;;;;4.93;2.92;;;5.80;99.90;;;5.10;100.00;101937.25;4486080;26;19999;-59
2024/04/19 02:01:54;;;;;;;6.13;3.22;;;5.80;99.90;;;5.14;100.00;101943.16;4486470;26;20011;-59
2024/04/19 02:03:55;;;;;;;7.90;3.28;;;5.90;99.90;;;5.07;100.00;101934.81;4475845;26;20000;-59
2024/04/19 02:06:12;;;;;;;6.10;3.60;;;5.80;99.90;;;5.00;100.00;101946.56;4456999;26;20633;-59
2024/04/19 02:08:13;;;;;;;7.00;4.15;;;5.80;99.90;;;4.96;100.00;101937.22;4459757;26;20004;-59
2024/04/19 02:10:14;;;;;;;9.55;4.55;;;5.70;99.90;;;4.99;100.00;101939.63;4460102;26;20034;-59
2024/04/19 02:12:15;;;;;;;9.50;4.32;;;5.70;99.90;;;5.05;100.00;101941.88;4459438;26;20074;-59
2024/04/19 02:14:15;;;;;;;11.38;4.25;;;5.70;99.90;;;5.06;100.00;101933.13;4459877;26;20004;-59
2024/04/19 02:16:16;;;;;;;7.00;3.83;;;5.70;99.90;;;5.12;100.00;101934.53;4472033;26;20011;-59
2024/04/19 02:18:17;;;;;;;7.97;4.03;;;5.80;99.90;;;5.14;100.00;101932.69;4459972;26;20004;-59
2024/04/19 02:20:18;;;;;;;8.10;4.53;;;5.80;99.90;;;5.18;100.00;101940.25;4459645;26;20000;-58
2024/04/19 02:22:19;;;;;;;5.22;3.95;;;5.80;99.90;;;5.19;100.00;101938.47;4459674;26;20000;-59
2024/04/19 02:24:19;;;;;;;6.25;3.00;;;5.90;99.90;;;5.13;100.00;101931.84;4459596;26;20011;-59
2024/04/19 02:26:20;;;;;;;6.75;3.58;;;5.80;99.90;;;5.02;100.00;101932.47;4459391;26;20004;-59
2024/04/19 02:30:59;;;;;;;4.75;3.33;;;5.70;99.90;;;4.81;100.00;101935.50;4459415;26;20015;-58
2024/04/19 02:33:00;;;;;;;4.90;2.58;;;5.60;99.90;;;4.70;100.00;101933.53;4459440;26;20007;-58
2024/04/19 02:35:01;;;;;;;4.65;3.33;;;5.50;99.90;;;4.67;100.00;101927.63;4459420;26;20004;-59
2024/04/19 02:37:02;;;;;;;5.82;2.80;;;5.40;99.90;;;4.65;100.00;101922.50;4459710;26;20004;-59
2024/04/19 02:39:03;;;;;;;5.03;3.22;;;5.40;99.90;;;4.65;100.00;101924.28;4459421;26;20000;-58
2024/04/19 02:41:05;;;;;;;5.28;3.80;;;5.40;99.90;;;4.66;100.00;101916.31;4459266;26;20175;-59
2024/04/19 02:43:06;;;;;;;6.93;4.20;;;5.40;99.90;;;4.69;100.00;101910.09;4459339;26;20015;-59
2024/04/19 02:45:07;;;;;;;10.88;4.30;;;5.40;99.90;;;4.75;100.00;101912.34;4459472;26;20351;-58
2024/04/19 02:47:08;;;;;;;10.82;4.57;;;5.40;99.90;;;4.84;100.00;101909.19;4459416;26;20011;-58
2024/04/19 02:49:09;;;;;;;6.68;3.97;;;5.50;99.90;;;4.92;100.00;101914.81;4459461;26;20028;-59
2024/04/19 02:51:09;;;;;;;11.98;4.72;;;5.60;99.90;;;4.96;100.00;101911.06;4459613;26;20340;-58
2024/04/19 02:53:10;;;;;;;4.65;4.03;;;5.60;99.90;;;4.99;100.00;101908.25;4459324;26;20004;-59
2024/04/19 02:55:11;;;;;;;9.07;4.57;;;5.70;99.90;;;5.06;100.00;101908.75;4473605;26;20039;-59
2024/04/19 02:57:12;;;;;;;6.78;3.85;;;5.70;99.90;;;5.13;100.00;101908.31;4488316;26;20007;-58
2024/04/19 02:59:14;;;;;;;6.38;4.13;;;5.80;99.90;;;5.21;100.00;101905.19;4469075;26;20424;-59
2024/04/19 03:01:15;;;;;;;6.90;4.20;;;5.80;99.90;;;5.27;100.00;101905.69;4459234;26;20024;-58
2024/04/19 03:03:15;;;;;;;10.32;4.43;;;5.90;99.90;;;5.30;100.00;101910.72;4459511;26;20019;-59
2024/04/19 03:05:16;;;;;;;9.10;4.50;;;6.00;99.90;;;5.34;100.00;101908.75;4475602;26;20004;-59
2024/04/19 03:07:17;;;;;;;10.95;4.50;;;6.00;99.90;;;5.39;100.00;101904.94;4459030;26;20041;-58
2024/04/19 03:09:18;;;;;;;10.05;4.07;;;6.10;99.90;;;5.42;100.00;101909.97;4459285;26;20023;-59
2024/04/19 03:11:19;;;;;;;8.73;4.40;;;6.10;99.90;;;5.43;100.00;101902.97;4458586;26;20004;-59
2024/04/19 03:13:20;;;;;;;7.38;3.90;;;6.10;99.90;;;5.42;100.00;101904.75;4458876;26;20028;-59
2024/04/19 03:15:21;;;;;;;8.02;4.25;;;6.10;99.90;;;5.43;100.00;101900.34;4459137;26;20070;-59
2024/04/19 03:17:22;;;;;;;8.45;3.20;;;6.10;99.90;;;5.43;100.00;101900.34;4459107;26;20012;-59
2024/04/19 03:19:22;;;;;;;10.00;3.50;;;6.10;99.90;;;5.44;100.00;101897.63;4457776;26;20004;-59
2024/04/19 03:21:23;;;;;;;5.85;3.67;;;6.10;99.90;;;5.45;100.00;101901.94;4459099;26;20455;-59
2024/04/19 03:23:24;;;;;;;7.43;4.03;;;6.10;99.90;;;5.50;100.00;101896.41;4458820;26;20001;-59
2024/04/19 03:25:25;;;;;;;4.93;3.25;;;6.20;99.90;;;5.51;100.00;101904.16;4458796;26;20030;-59
2024/04/19 03:27:26;;;;;;;10.80;3.75;;;6.20;99.90;;;5.53;100.00;101899.66;4458677;26;20443;-58
2024/04/19 03:29:27;;;;;;;5.45;3.08;;;6.20;99.90;;;5.51;100.00;101905.94;4458968;26;20036;-59
2024/04/19 03:31:27;;;;;;;8.27;3.53;;;6.20;99.90;;;5.48;100.00;101901.75;4468113;26;20008;-59
2024/04/19 03:33:28;;;;;;;10.07;3.55;;;6.20;99.90;;;5.49;100.00;101907.81;4458943;26;20015;-59
2024/04/19 03:35:29;;;;;;;7.32;3.20;;;6.20;99.90;;;5.49;100.00;101899.97;4458629;26;20070;-59
2024/04/19 03:37:30;;;;;;;6.18;3.05;;;6.20;99.90;;;5.49;100.00;101902.59;4458865;26;20073;-58
2024/04/19 03:39:31;;;;;;;6.40;3.33;;;6.20;99.90;;;5.51;100.00;101898.09;4458559;26;20035;-59
2024/04/19 03:41:33;;;;;;;6.78;3.63;;;6.20;99.90;;;5.53;100.00;101893.59;4458358;26;20004;-58
2024/04/19 03:43:40;;;;;;;4.35;2.95;;;6.20;99.90;;;5.52;100.00;101894.56;4458543;26;20443;-59
2024/04/19 03:45:41;;;;;;;4.80;3.03;;;6.20;99.90;;;5.51;100.00;101896.31;4458624;26;20000;-58
2024/04/19 03:47:42;;;;;;;4.85;4.05;;;6.20;99.90;;;5.52;100.00;101889.31;4458761;26;20004;-59
2024/04/19 03:49:43;;;;;;;8.13;3.13;;;6.20;99.90;;;5.52;100.00;101890.16;4458597;26;20004;-58
2024/04/19 03:51:44;;;;;;;8.70;3.88;;;6.20;99.90;;;5.54;100.00;101887.44;4458717;26;20455;-59
2024/04/19 03:53:45;;;;;;;8.02;3.90;;;6.20;99.90;;;5.50;100.00;101885.94;4458633;26;20011;-59
2024/04/19 03:55:46;;;;;;;10.20;3.88;;;6.20;99.90;;;5.48;100.00;101879.97;4467384;26;20032;-59
2024/04/19 03:57:47;;;;;;;8.13;3.17;;;6.20;99.90;;;5.45;100.00;101877.53;4458645;26;20029;-59
2024/04/19 03:59:47;;;;;;;6.78;4.22;;;6.10;99.90;;;5.41;100.00;101878.66;4487194;26;20000;-59
2024/04/19 04:01:52;;;;;;;3.67;2.95;;;6.10;99.90;;;5.34;100.00;101885.22;4482505;26;20018;-59
2024/04/19 04:03:53;;;;;;;7.35;2.97;;;6.10;99.90;;;5.28;100.00;101886.44;4467818;26;20084;-59
2024/04/19 04:05:54;;;;;;;7.63;3.45;;;6.00;99.90;;;5.25;100.00;101885.78;4464825;26;20073;-59
2024/04/19 04:07:55;;;;;;;10.88;4.32;;;5.90;99.90;;;5.24;100.00;101882.31;4458561;26;20042;-58
2024/04/19 04:09:56;;;;;;;6.65;3.75;;;5.90;99.90;;;5.23;100.00;101878.00;4458455;26;20000;-59
2024/04/19 04:11:57;;;;;;;7.60;4.20;;;5.90;99.90;;;5.25;100.00;101878.78;4458211;26;20009;-58
2024/04/19 04:13:58;;;;;;;6.50;3.65;;;5.90;99.90;;;5.25;100.00;101880.56;4458571;26;20036;-59
2024/04/19 04:15:59;;;;;;;8.20;3.25;;;5.90;99.90;;;5.23;100.00;101878.00;4458504;26;20000;-59
2024/04/19 04:18:01;;;;;;;8.10;4.13;;;5.90;99.90;;;5.23;100.00;101875.41;4458389;26;20440;-59
2024/04/19 04:20:03;;;;;;;7.63;3.38;;;5.90;99.90;;;5.23;100.00;101877.16;4458334;26;20000;-59
2024/04/19 04:22:04;;;;;;;6.13;3.00;;;5.90;99.90;;;5.19;100.00;101884.38;4458419;26;20316;-59
2024/04/19 04:24:05;;;;;;;6.60;2.88;;;5.90;99.90;;;5.09;100.00;101878.03;4457917;26;20050;-59
2024/04/19 04:26:06;;;;;;;3.80;2.80;;;5.80;99.90;;;4.99;100.00;101882.13;4457948;26;20521;-59
2024/04/19 04:28:07;;;;;;;5.55;3.38;;;5.80;99.90;;;4.93;100.00;101883.31;4458143;26;20044;-58
2024/04/19 04:30:08;;;;;;;7.85;3.83;;;5.70;99.90;;;4.88;100.00;101877.53;4458002;26;20004;-58
2024/04/19 04:32:10;;;;;;;5.70;3.72;;;5.60;99.90;;;4.87;100.00;101877.63;4458027;26;20000;-58
2024/04/19 04:34:11;;;;;;;8.55;3.50;;;5.60;99.90;;;4.85;100.00;101880.34;4461796;26;20005;-58
2024/04/19 04:36:12;;;;;;;6.93;3.95;;;5.60;99.90;;;4.84;100.00;101872.56;4458185;26;20005;-58
2024/04/19 04:38:13;;;;;;;8.85;3.72;;;5.60;99.90;;;4.83;100.00;101876.16;4458270;26;20395;-59
2024/04/19 04:40:14;;;;;;;8.02;3.78;;;5.50;99.90;;;4.85;100.00;101874.28;4457841;26;20002;-59
2024/04/19 04:42:15;;;;;;;8.20;3.92;;;5.50;99.90;;;4.89;100.00;101878.38;4457660;26;20406;-58
2024/04/19 04:44:16;;;;;;;5.30;3.55;;;5.60;99.90;;;4.86;100.00;101871.56;4457939;26;20011;-59
2024/04/19 04:46:17;;;;;;;9.23;4.05;;;5.60;99.90;;;4.86;100.00;101875.97;4458163;26;20010;-58
2024/04/19 04:48:17;;;;;;;6.85;3.83;;;5.60;99.90;;;4.81;100.00;101867.53;4457994;26;20028;-59
2024/04/19 04:50:20;;;;;;;4.47;3.53;;;5.60;99.90;;;4.76;100.00;101882.66;4457959;26;20044;-58
2024/04/19 04:52:24;;;;;;;8.48;3.63;;;5.50;99.90;;;4.70;100.00;101875.19;4457794;26;20029;-58
2024/04/19 04:54:25;;;;;;;5.30;3.17;;;5.50;99.90;;;4.61;100.00;101878.34;4463067;26;20072;-58
2024/04/19 04:56:26;;;;;;;5.45;3.40;;;5.40;99.90;;;4.55;100.00;101886.53;4462851;26;20012;-58
2024/04/19 04:58:27;;;;;;;4.78;2.97;;;5.30;99.90;;;4.44;100.00;101874.09;4478828;26;20316;-58
2024/04/19 05:00:31;;;;;;;7.40;3.60;;;5.20;99.90;;;4.38;100.00;101874.47;4457745;26;20012;-58
2024/04/19 05:02:32;;;;;;;4.32;3.13;;;5.20;99.90;;;4.31;100.00;101873.13;4457700;26;20000;-58
2024/04/19 05:04:33;;;;;;;5.00;3.00;;;5.10;99.90;;;4.25;100.00;101876.94;4474364;26;20027;-59
2024/04/19 05:06:34;;;;;;;7.00;3.08;;;5.10;99.90;;;4.20;100.00;101875.50;4457869;26;20015;-59
2024/04/19 05:08:34;;;;;;;6.63;3.65;;;5.00;99.90;;;4.17;100.00;101875.69;4457776;26;20011;-59
2024/04/19 05:10:35;;;;;;;8.40;4.45;;;4.90;99.90;;;4.17;100.00;101875.69;4457856;26;20036;-58
2024/04/19 05:12:36;;;;;;;12.15;4.95;;;4.90;99.90;;;4.24;100.00;101874.41;4457479;26;20032;-59
2024/04/19 05:14:37;;;;;;;7.40;4.60;;;5.00;99.90;;;4.28;100.00;101866.31;4457602;26;20028;-58
2024/04/19 05:16:40;;;;;;;7.90;4.15;;;5.00;99.90;;;4.33;100.00;101872.09;4457679;26;20004;-59
2024/04/19 05:18:41;;;;;;;8.55;5.28;;;5.00;99.90;;;4.34;100.00;101871.19;4457584;26;20004;-58
2024/04/19 05:20:42;;;;;;;11.13;5.13;;;5.10;99.90;;;4.41;100.00;101880.34;4480148;26;20076;-59
2024/04/19 05:22:43;;;;;;;8.32;5.18;;;5.10;99.90;;;4.43;100.00;101883.72;4457391;26;20001;-58
2024/04/19 05:24:46;;;;;;;11.05;5.25;;;5.10;99.90;;;4.46;100.00;101883.53;4457485;26;20044;-58
2024/04/19 05:26:47;;;;;;;10.93;5.07;;;5.20;99.90;;;4.47;100.00;101890.44;4457196;26;20012;-58
2024/04/19 05:28:48;;;;;;;10.68;5.68;;;5.20;99.90;;;4.50;100.00;101893.81;4457469;26;20036;-59
2024/04/19 05:30:49;;;;;;;10.20;6.45;;;5.20;99.90;;;4.52;100.00;101894.53;4457506;26;20032;-58
2024/04/19 05:32:50;;;;;;;9.52;6.40;;;5.20;99.90;;;4.55;100.00;101889.16;4457542;26;20095;-59
2024/04/19 05:34:50;;;;;;;10.05;6.95;;;5.30;99.90;;;4.57;100.00;101889.91;4457717;26;20073;-58
2024/04/19 05:36:51;;;;;;;10.82;6.63;;;5.30;99.90;;;4.58;100.00;101889.81;4458719;26;20000;-59
2024/04/19 05:38:52;;;;;;;12.10;6.55;;;5.30;99.90;;;4.59;100.00;101893.28;4480038;26;20008;-59
2024/04/19 05:40:53;;;;;;;9.57;6.45;;;5.30;99.90;;;4.59;100.00;101898.50;4457014;26;20038;-59
2024/04/19 05:42:54;;;;;;;12.93;7.55;;;5.30;99.90;;;4.61;100.00;101896.63;4459625;26;20016;-58
2024/04/19 05:44:55;;;;;;;13.85;6.28;;;5.30;99.90;;;4.59;100.00;101888.88;4459902;26;20443;-58
2024/04/19 05:46:55;;;;;;;8.82;6.13;;;5.30;99.90;;;4.58;100.00;101894.19;4460217;26;20000;-58
2024/04/19 05:48:56;;;;;;;7.32;6.00;;;5.30;99.90;;;4.56;100.00;101886.47;4459942;26;20032;-59
2024/04/19 05:50:57;;;;;;;8.15;6.03;;;5.30;99.90;;;4.56;100.00;101883.84;4459999;26;20032;-58
2024/04/19 05:52:58;;;;;;;11.05;6.68;;;5.30;99.90;;;4.60;100.00;101894.97;4460055;26;20032;-58
2024/04/19 05:54:59;;;;;;;15.20;7.18;;;5.30;99.90;;;4.61;100.00;101887.03;4464168;26;20020;-58
2024/04/19 05:57:00;;;;;;;11.30;6.68;;;5.30;99.90;;;4.65;100.00;101887.69;4481161;26;20004;-58
2024/04/19 05:59:01;;;;;;;12.13;7.50;;;5.40;99.90;;;4.68;100.00;101897.97;4472456;26;20000;-58
2024/04/19 06:01:05;;;;;;;12.50;6.45;;;5.30;99.90;;;4.68;100.00;101888.34;4460085;26;20443;-58
2024/04/19 06:03:05;;;;;;;9.85;6.53;;;5.40;99.90;;;4.70;100.00;101894.31;4460056;26;20019;-59
2024/04/19 06:05:07;;;;;;;10.32;7.13;;;5.40;99.90;;;4.72;100.00;101900.28;4476867;26;20000;-58
2024/04/19 06:07:08;;;;;;;11.35;6.70;;;5.40;99.90;;;4.77;100.00;101886.97;4466684;26;20394;-59
2024/04/19 06:09:09;;;;;;;13.32;6.28;;;5.40;99.90;;;4.80;100.00;101886.78;4459897;26;20012;-58
2024/04/19 06:11:11;;;;;;;10.73;6.95;;;5.50;99.90;;;4.86;100.00;101887.25;4459551;26;20466;-58
2024/04/19 06:13:13;;;;;;;10.23;7.22;;;5.60;99.90;;;4.93;100.00;101885.94;4459618;26;20004;-58
2024/04/19 06:15:14;;;;;;;11.48;6.63;;;5.60;99.90;;;4.97;100.00;101892.69;4459878;26;20004;-59
2024/04/19 06:17:15;;;;;;;11.05;5.90;;;5.70;99.90;;;5.01;100.00;101883.72;4467288;26;20014;-58
2024/04/19 06:19:16;;;;;;;11.40;6.53;;;5.70;99.90;;;5.05;100.00;101894.81;4487140;26;20028;-58
2024/04/19 06:21:17;;;;;;;11.95;7.18;;;5.70;99.90;;;5.13;100.00;101891.75;4481568;26;20015;-59
2024/04/19 06:23:17;;;;;;;12.00;6.55;;;5.80;99.90;;;5.21;100.00;101897.34;4474247;26;20432;-58
2024/04/19 06:25:18;;;;;;;15.35;6.40;;;5.80;99.90;;;5.23;100.00;101891.09;4489124;26;20422;-59
2024/04/19 06:27:19;;;;;;;10.75;6.18;;;5.90;99.90;;;5.25;100.00;101897.09;4463158;26;20479;-58
2024/04/19 06:29:20;;;;;;;8.50;5.90;;;5.90;99.90;;;5.29;100.00;101890.72;4459446;26;20004;-58
2024/04/19 06:31:21;;;;;;;8.23;5.93;;;6.00;99.90;;;5.34;100.00;101893.06;4459514;26;20012;-58
2024/04/19 06:33:22;;;;;;;13.13;6.75;;;6.00;99.90;;;5.38;100.00;101897.16;4459302;26;20024;-59
2024/04/19 06:35:22;;;;;;;12.57;6.68;;;6.10;99.90;;;5.42;100.00;101903.91;4459646;26;20052;-58
2024/04/19 06:37:24;;;;;;;8.27;6.05;;;6.10;99.90;;;5.45;100.00;101906.31;4477939;26;20000;-58
2024/04/19 06:39:26;;;;;;;12.27;6.60;;;6.10;99.90;;;5.50;100.00;101902.47;4459506;26;20030;-58
2024/04/19 06:41:27;;;;;;;10.52;5.80;;;6.20;99.90;;;5.57;100.00;101901.16;4459036;26;20000;-58
2024/04/19 06:43:27;;;;;;;8.98;5.85;;;6.20;99.90;;;5.62;100.00;101900.88;4459062;26;20004;-58
2024/04/19 06:45:28;;;;;;;9.23;6.18;;;6.30;99.90;;;5.67;100.00;101900.59;4459603;26;20044;-58
2024/04/19 06:47:33;;;;;;;12.38;6.47;;;6.30;99.90;;;5.71;100.00;101899.44;4472896;26;20032;-58
2024/04/19 06:49:34;;;;;;;11.25;6.03;;;6.40;99.90;;;5.75;100.00;101893.94;4459559;26;20028;-59
2024/04/19 06:51:35;;;;;;;13.38;6.30;;;6.40;99.90;;;5.85;100.00;101889.84;4459318;26;20085;-58
2024/04/19 06:53:36;;;;;;;11.77;6.30;;;6.50;99.90;;;5.91;100.00;101891.22;4459279;26;20108;-59
2024/04/19 06:55:37;;;;;;;10.77;5.78;;;6.60;99.90;;;5.95;100.00;101890.06;4467760;26;20015;-59
2024/04/19 06:57:38;;;;;;;15.35;6.13;;;6.60;99.90;;;6.01;100.00;101890.53;4488363;26;20011;-59
2024/04/19 06:59:42;;;;;;;11.30;5.50;;;6.70;99.90;;;6.19;100.00;101896.34;4462379;26;20015;-59
2024/04/19 07:01:43;;;;;;;9.70;5.25;;;6.80;99.90;;;6.21;100.00;101901.50;4459328;26;20007;-59
2024/04/19 07:03:44;;;;;;;5.78;5.18;;;6.90;99.90;;;6.26;100.00;101894.19;4466271;26;20000;-59
2024/04/19 07:05:47;;;;;;;11.20;5.05;;;7.00;99.90;;;6.31;100.00;101892.09;4468681;26;20010;-59
2024/04/19 07:07:48;;;;;;;8.85;5.10;;;7.00;99.90;;;6.41;100.00;101896.63;4461360;26;20005;-59
2024/04/19 07:09:51;;;;;;;10.77;4.68;;;7.10;99.90;;;6.44;100.00;101883.34;4459324;26;20000;-59
2024/04/19 07:11:52;;;;;;;7.43;4.80;;;7.20;99.90;;;6.56;100.00;101897.41;4458936;26;20004;-59
2024/04/19 07:13:53;;;;;;;7.10;4.22;;;7.20;99.90;;;6.62;100.00;101892.59;4459309;26;20454;-59
2024/04/19 07:15:54;;;;;;;9.05;4.35;;;7.30;99.90;;;6.72;100.00;101894.59;4459195;26;20004;-59
2024/04/19 07:17:54;;;;;;;9.93;4.70;;;7.40;99.90;;;6.82;100.00;101900.88;4459133;26;20040;-59
2024/04/19 07:19:57;;;;;;;8.35;4.63;;;7.50;99.90;;;6.91;100.00;101905.50;4458849;26;20008;-59
2024/04/19 07:21:58;;;;;;;7.55;4.53;;;7.60;99.90;;;6.96;100.00;101896.38;4459222;26;20014;-59
2024/04/19 07:23:59;;;;;;;8.35;3.72;;;7.60;99.90;;;7.04;100.00;101899.34;4458975;26;20001;-59
2024/04/19 07:25:59;;;;;;;6.72;4.47;;;7.70;99.90;;;7.13;100.00;101900.50;4462949;26;20110;-59
2024/04/19 07:28:00;;;;;;;8.00;4.07;;;7.80;99.90;;;7.20;100.00;101889.44;4474040;26;20004;-59
2024/04/19 07:30:01;;;;;;;7.55;4.38;;;7.90;99.90;;;7.30;100.00;101894.06;4459107;26;20049;-59
2024/04/19 07:32:02;;;;;;;7.68;3.60;;;8.00;99.90;;;7.41;100.00;101902.88;4515948;26;20038;-59
2024/04/19 07:34:03;;;;;;;5.38;3.58;;;8.00;99.90;;;7.46;100.00;101894.69;4458916;26;20004;-59
2024/04/19 07:36:04;;;;;;;4.80;2.72;;;8.20;99.90;;;7.56;100.00;101893.06;4463854;26;20026;-59
2024/04/19 07:38:05;;;;;;;5.07;3.15;;;8.20;99.90;;;7.65;100.00;101890.63;4468154;26;20012;-59
2024/04/19 07:40:08;;;;;;;8.18;3.03;;;8.30;99.90;;;7.77;100.00;101894.16;4458577;26;20012;-59
2024/04/19 07:42:09;;;;;;;8.15;3.35;;;8.40;99.90;;;7.98;100.00;101886.53;4458501;26;20339;-59
2024/04/19 07:44:10;;;;;;;3.72;2.60;;;8.60;99.90;;;8.12;100.00;101889.00;4458765;26;20028;-59
2024/04/19 07:46:10;;;;;;;5.50;2.55;;;8.70;99.90;;;8.17;100.00;101876.38;4465217;26;20004;-58
2024/04/19 07:48:11;;;;;;;9.23;2.90;;;8.80;99.90;;;8.28;100.00;101884.31;4466705;26;20032;-59
2024/04/19 07:50:12;;;;;;;3.92;2.28;;;8.90;99.90;;;8.37;100.00;101880.16;4458638;26;20518;-58
2024/04/19 07:52:13;;;;;;;5.60;2.42;;;9.00;99.90;;;8.53;100.00;101885.97;4458536;26;20004;-59
2024/04/19 07:54:14;;;;;;;4.65;2.05;;;9.10;99.90;;;8.61;100.00;101881.81;4461018;26;20008;-59
2024/04/19 07:56:15;;;;;;;6.90;1.95;;;9.20;99.90;;;8.67;100.00;101886.59;4467740;26;20028;-59
2024/04/19 07:58:16;;;;;;;4.90;2.10;;;9.30;99.90;;;8.76;100.00;101878.03;4482104;26;20015;-59
2024/04/19 08:00:17;;;;;;;4.10;2.05;;;9.40;99.90;;;8.83;100.00;101881.88;4458587;26;20004;-59
2024/04/19 08:02:20;;;;;;;5.35;1.90;;;9.40;99.90;;;8.90;100.00;101876.94;4458557;26;20555;-59
2024/04/19 08:04:21;;;;;;;6.53;2.60;;;9.50;99.90;;;8.95;100.00;101881.88;4473126;26;20014;-59
2024/04/19 08:06:22;;;;;;;6.10;2.47;;;9.60;99.90;;;9.02;100.00;101872.56;4460388;26;20012;-59
2024/04/19 08:08:24;;;;;;;6.97;2.50;;;9.70;99.90;;;9.04;100.00;101876.75;4458452;26;20011;-59
2024/04/19 08:10:27;;;;;;;6.45;2.72;;;9.60;99.90;;;9.11;100.00;101883.19;4458409;26;20036;-59
2024/04/19 08:12:29;;;;;;;8.05;2.83;;;9.70;99.90;;;9.19;100.00;101872.94;4458533;26;20110;-59
2024/04/19 08:14:29;;;;;;;8.63;2.55;;;9.80;99.90;;;9.30;100.00;101878.19;4458246;26;20341;-59
2024/04/19 08:16:30;;;;;;;5.47;2.95;;;9.90;99.90;;;9.43;100.00;101880.72;4468759;26;20029;-59
2024/04/19 08:18:31;;;;;;;12.98;2.45;;;10.00;99.90;;;9.52;100.00;101882.63;4469247;26;20036;-59
2024/04/19 08:20:32;;;;;;;4.75;2.78;;;10.10;99.90;;;9.58;100.00;101883.91;4458416;26;20004;-59
2024/04/19 08:22:33;;;;;;;6.25;2.28;;;10.20;99.90;;;9.65;100.00;101888.56;4458399;26;20032;-59
2024/04/19 08:24:34;;;;;;;6.47;2.63;;;10.30;99.90;;;9.68;100.00;101888.31;4458133;26;20015;-59
2024/04/19 08:26:34;;;;;;;5.28;2.08;;;10.30;99.90;;;9.77;100.00;101890.22;4463566;26;20000;-59
2024/04/19 08:28:35;;;;;;;4.43;2.40;;;10.30;99.90;;;9.83;100.00;101895.00;4463721;26;20000;-59
2024/04/19 08:30:36;;;;;;;7.85;1.77;;;10.40;99.90;;;9.92;100.00;101889.00;4458243;26;20472;-59